Terminal Aerodrome Forecast
Issued by NWS

Home | Current Version | Previous Version | Text Only | Print | Product List | Glossary On
Versions: 1 2 3 4 5 6 7 8 9 10 11 12 13
000
FTUS45 KABQ 201100
TAFAEG
TAF
KAEG 201125Z 2012/2112 32005KT P6SM FEW050
     FM201700 11005KT P6SM SCT050
     FM201900 14009KT P6SM VCSH BKN060
     FM210200 12004KT P6SM BKN070=

USA.gov is the U.S. government's official web portal to all federal, state and local government web resources and services.